Pagina principale
Immagini satellite Previsioni 15 giorniClimaMeteomar Cicloni Fulmine AeroportiFAQ Bollettino Informazioni
Tempo : Europa Africa America settentrionale America meridionale Asia Australia-Oceania Altri
Lingue Contatto

Genova, Italia

Sestri

latitudine: 44-25N, longitudine: 008-51E, altezza: 2 m


METAR: LIMJ 210950Z 13006KT 9999 SCT028 SCT045 23/20 Q1013
TAF: LIMJ 210500Z 2106/2206 12012KT 9999 SCT015 BKN040 BECMG 2121/2124 02018G30KT

Ora: 12:14 (10:14 UTC)

Osservazione

Il bollettino è stato emesso 24 minuti fa, alle 09:50 UTC  
Vento 06 kt da sud-est
Temperature 23°C
Umidità 83%
Pressione 1013 hPa
Visibilità 10 km o più
Nubi sparse ad un'altezza di 2800 ft
Nubi sparse ad un'altezza di 4500 ft

Cambiare le unità

Previsione

Il bollettino è stato emesso 05 ore e 14 minuti fa, alle 05:00 UTC  
Previsione valida dal 21 alle 06 UTC al 22 alle 06 UTC
Vento 12 kt da est/sud-est
Visibilità 10 km o più
Nubi sparse ad un'altezza di 1500 ft
Nuvoloso ad un'altezza di 4000 ft
Evoluzione graduale
dal 21 alle 21 UTC al 21 alle 24 UTC
Vento 18 kt da nord/nord-est con raffiche fino a 30 kt
Le informazioni contenute in questo sito formano oggetto di una clausola di esclusione di responsabilità
Tempo : Europa Africa America settentrionale America meridionale Asia Australia-Oceania Altri
Immagini satellite Previsioni 15 giorniClimaMeteomar Cicloni Fulmine AeroportiFAQ Lingue Contatto Bollettino Informazioni